createdAt,value
2023-05-02T00:00:19.809Z,11.53
2023-05-02T00:01:41.943Z,7.17
2023-05-02T00:03:06.361Z,6.33
2023-05-02T00:04:29.559Z,5.73
2023-05-02T00:05:51.786Z,7.73
2023-05-02T00:07:13.854Z,6.20
2023-05-02T00:08:36.043Z,7.00
2023-05-02T00:09:58.728Z,6.50
2023-05-02T00:11:21.395Z,10.00
2023-05-02T00:12:43.537Z,5.13
2023-05-02T00:14:05.712Z,7.50
2023-05-02T00:15:28.028Z,6.20
2023-05-02T00:16:50.212Z,8.07
2023-05-02T00:18:12.389Z,9.03
2023-05-02T00:19:39.995Z,13.10
2023-05-02T00:21:02.269Z,5.73
2023-05-02T00:22:24.369Z,8.23
2023-05-02T00:23:46.471Z,7.03
2023-05-02T00:25:09.222Z,5.70
2023-05-02T00:26:31.368Z,6.03
2023-05-02T00:27:53.526Z,6.10
2023-05-02T00:29:15.601Z,7.20
2023-05-02T00:30:43.789Z,5.53
2023-05-02T00:32:06.525Z,5.90
2023-05-02T00:33:28.529Z,10.10
2023-05-02T00:34:50.751Z,6.50
2023-05-02T00:36:16.802Z,5.97
2023-05-02T00:37:39.246Z,6.30
2023-05-02T00:39:01.462Z,8.00
2023-05-02T00:40:23.506Z,9.23
2023-05-02T00:41:45.590Z,10.20
2023-05-02T00:43:07.619Z,4.63
2023-05-02T00:44:29.718Z,4.80
2023-05-02T00:45:52.115Z,7.53
2023-05-02T00:47:15.581Z,8.43
2023-05-02T00:48:37.850Z,6.20
2023-05-02T00:50:01.269Z,5.53
2023-05-02T00:51:23.626Z,4.83
2023-05-02T00:52:45.762Z,7.27
2023-05-02T00:54:07.963Z,7.97
2023-05-02T00:55:31.214Z,6.20
2023-05-02T00:56:53.278Z,10.57
2023-05-02T00:58:17.109Z,5.70
2023-05-02T00:59:39.590Z,8.90
2023-05-02T01:01:20.093Z,7.40
2023-05-02T01:03:10.798Z,10.33
2023-05-02T01:05:01.545Z,9.00
2023-05-02T01:06:32.626Z,8.73
2023-05-02T01:08:29.105Z,5.17
2023-05-02T01:10:18.614Z,12.93
2023-05-02T01:12:12.441Z,10.03
2023-05-02T01:13:36.581Z,5.63
2023-05-02T01:15:02.222Z,7.43
2023-05-02T01:16:25.144Z,8.63
2023-05-02T01:17:48.576Z,5.23
2023-05-02T01:19:25.052Z,7.23
2023-05-02T01:20:51.056Z,6.10
2023-05-02T01:22:14.456Z,7.30
2023-05-02T01:23:48.656Z,8.33
2023-05-02T01:25:16.925Z,5.40
2023-05-02T01:27:09.808Z,5.50
2023-05-02T01:28:54.351Z,6.70
2023-05-02T01:30:20.593Z,11.17
2023-05-02T01:31:46.294Z,7.30
2023-05-02T01:33:11.778Z,11.00
2023-05-02T01:34:36.340Z,6.47
2023-05-02T01:36:01.366Z,7.50
2023-05-02T01:37:24.499Z,6.10
2023-05-02T01:38:47.442Z,13.07
2023-05-02T01:40:10.808Z,5.67
2023-05-02T01:41:34.585Z,9.40
2023-05-02T01:42:58.218Z,8.63
2023-05-02T01:44:23.015Z,9.00
2023-05-02T01:45:47.232Z,4.53
2023-05-02T01:47:10.349Z,8.67
2023-05-02T01:48:33.354Z,6.27
2023-05-02T01:49:56.389Z,9.73
2023-05-02T01:51:20.613Z,4.73
2023-05-02T01:52:44.281Z,6.93
2023-05-02T01:54:08.909Z,6.60
2023-05-02T01:55:33.472Z,9.67
2023-05-02T01:56:56.634Z,6.03
2023-05-02T01:58:20.630Z,9.33
2023-05-02T01:59:44.744Z,8.43
2023-05-02T02:01:09.601Z,6.00
2023-05-02T02:02:34.040Z,6.37
2023-05-02T02:03:57.831Z,6.53
2023-05-02T02:05:21.308Z,8.53
2023-05-02T02:06:48.583Z,6.70
2023-05-02T02:08:10.838Z,6.30
2023-05-02T02:09:33.154Z,6.67
2023-05-02T02:11:04.333Z,6.47
2023-05-02T02:12:37.059Z,11.97
2023-05-02T02:14:06.701Z,14.90
2023-05-02T02:15:30.602Z,7.50
2023-05-02T02:16:56.444Z,5.50
2023-05-02T02:18:22.189Z,14.00
2023-05-02T02:19:45.753Z,6.73
2023-05-02T02:21:11.270Z,8.37
2023-05-02T02:22:37.323Z,13.77
2023-05-02T02:24:03.988Z,13.83
2023-05-02T02:25:27.242Z,6.80
2023-05-02T02:26:49.470Z,7.37
2023-05-02T02:28:11.635Z,7.00
2023-05-02T02:29:33.740Z,10.50
2023-05-02T02:30:56.521Z,8.77
2023-05-02T02:32:18.683Z,15.00
2023-05-02T02:33:41.243Z,6.13
2023-05-02T02:35:04.412Z,9.73
2023-05-02T02:36:42.521Z,5.80
2023-05-02T02:38:23.449Z,9.70
2023-05-02T02:40:07.095Z,6.57
2023-05-02T02:41:40.063Z,8.07
2023-05-02T02:43:10.089Z,10.23
2023-05-02T02:45:16.988Z,9.30
2023-05-02T02:46:42.308Z,16.50
2023-05-02T02:48:07.264Z,8.33
2023-05-02T02:49:40.074Z,13.83
2023-05-02T02:51:02.142Z,15.60
2023-05-02T02:52:48.935Z,13.20
2023-05-02T02:54:33.271Z,10.40
2023-05-02T02:56:03.038Z,14.60
2023-05-02T02:57:39.519Z,9.97
2023-05-02T02:59:25.274Z,10.73
2023-05-02T03:00:49.696Z,13.17
2023-05-02T03:02:17.075Z,10.93
2023-05-02T03:03:40.878Z,8.43
2023-05-02T03:05:04.414Z,9.97
2023-05-02T03:06:27.428Z,9.50
2023-05-02T03:07:49.621Z,13.50
2023-05-02T03:09:18.619Z,11.17
2023-05-02T03:10:40.983Z,11.13
2023-05-02T03:12:03.303Z,19.40
2023-05-02T03:13:25.399Z,9.87
2023-05-02T03:14:47.625Z,10.53
2023-05-02T03:16:28.250Z,13.90
2023-05-02T03:17:50.442Z,14.17
2023-05-02T03:19:12.740Z,14.77
2023-05-02T03:20:34.867Z,14.50
2023-05-02T03:21:57.503Z,17.17
2023-05-02T03:23:19.557Z,13.57
2023-05-02T03:24:41.745Z,14.87
2023-05-02T03:26:04.060Z,14.00
2023-05-02T03:27:26.338Z,19.60
2023-05-02T03:28:50.361Z,16.77
2023-05-02T03:30:12.616Z,15.53
2023-05-02T03:31:35.078Z,20.87
2023-05-02T03:32:57.236Z,22.40
2023-05-02T03:34:21.853Z,23.33
2023-05-02T03:35:44.018Z,25.83
2023-05-02T03:37:06.086Z,22.43
2023-05-02T03:38:29.987Z,19.40
2023-05-02T03:39:52.186Z,23.63
2023-05-02T03:41:14.275Z,22.07
2023-05-02T03:42:45.034Z,19.87
2023-05-02T03:44:07.144Z,21.23
2023-05-02T03:45:29.200Z,22.40
2023-05-02T03:46:51.734Z,20.10
2023-05-02T03:48:13.922Z,19.77
2023-05-02T03:49:36.792Z,21.70
2023-05-02T03:50:58.900Z,23.70
2023-05-02T03:52:20.939Z,29.33
2023-05-02T03:53:43.516Z,21.47
2023-05-02T03:55:07.794Z,24.97
2023-05-02T03:56:30.136Z,27.60
2023-05-02T03:57:52.227Z,26.87
2023-05-02T03:59:15.403Z,24.30
2023-05-02T04:00:38.295Z,26.33
2023-05-02T04:02:00.442Z,20.83
2023-05-02T04:03:23.127Z,32.50
2023-05-02T04:04:45.297Z,25.90
2023-05-02T04:06:07.435Z,31.90
2023-05-02T04:07:29.632Z,27.40
2023-05-02T04:08:51.891Z,27.17
2023-05-02T04:10:16.609Z,22.57
2023-05-02T04:11:38.658Z,21.90
2023-05-02T04:13:02.995Z,24.33
2023-05-02T04:14:25.214Z,22.20
2023-05-02T04:15:47.288Z,21.87
2023-05-02T04:17:09.574Z,26.00
2023-05-02T04:18:31.793Z,20.77
2023-05-02T04:19:53.861Z,23.70
2023-05-02T04:21:15.887Z,25.30
2023-05-02T04:22:39.655Z,22.63
2023-05-02T04:24:01.822Z,20.27
2023-05-02T04:25:23.875Z,19.37
2023-05-02T04:26:48.661Z,22.03
2023-05-02T04:28:10.702Z,24.67
2023-05-02T04:29:32.755Z,26.30
2023-05-02T04:30:56.062Z,20.83
2023-05-02T04:32:18.180Z,23.90
2023-05-02T04:33:40.262Z,21.57
2023-05-02T04:35:02.713Z,24.43
2023-05-02T04:36:26.196Z,20.30
2023-05-02T04:37:48.326Z,20.73
2023-05-02T04:39:10.394Z,21.23
2023-05-02T04:40:33.188Z,20.63
2023-05-02T04:41:55.335Z,28.47
2023-05-02T04:43:17.442Z,21.00
2023-05-02T04:44:39.465Z,23.40
2023-05-02T04:46:01.648Z,22.70
2023-05-02T04:47:23.769Z,21.40
2023-05-02T04:48:45.855Z,21.40
2023-05-02T04:50:08.607Z,23.20
2023-05-02T04:51:31.685Z,27.10
2023-05-02T04:52:54.090Z,26.27
2023-05-02T04:54:16.164Z,22.57
2023-05-02T04:55:38.209Z,21.67
2023-05-02T04:57:03.252Z,24.60
2023-05-02T04:58:25.309Z,25.20
2023-05-02T04:59:47.396Z,21.70
2023-05-02T05:01:09.579Z,28.40
2023-05-02T05:02:31.812Z,21.10
2023-05-02T05:03:54.854Z,24.67
2023-05-02T05:05:17.057Z,27.97
2023-05-02T05:06:39.147Z,22.87
2023-05-02T05:08:01.242Z,23.73
2023-05-02T05:09:23.397Z,24.93
2023-05-02T05:10:48.671Z,23.83
2023-05-02T05:12:10.936Z,23.73
2023-05-02T05:13:36.257Z,27.43
2023-05-02T05:14:58.351Z,26.33
2023-05-02T05:16:20.417Z,24.53
2023-05-02T05:17:42.718Z,24.63
2023-05-02T05:19:05.162Z,20.43
2023-05-02T05:20:27.218Z,29.60
2023-05-02T05:21:49.335Z,23.70
2023-05-02T05:23:11.662Z,25.20
2023-05-02T05:24:33.891Z,25.07
2023-05-02T05:25:55.957Z,26.37
2023-05-02T05:27:18.011Z,25.90
2023-05-02T05:28:40.054Z,24.73
2023-05-02T05:30:03.579Z,21.80
2023-05-02T05:31:25.798Z,25.20
2023-05-02T05:32:48.541Z,25.67
2023-05-02T05:34:10.671Z,27.40
2023-05-02T05:35:32.838Z,23.33
2023-05-02T05:36:54.997Z,26.77
2023-05-02T05:38:17.040Z,19.10
2023-05-02T05:39:39.103Z,22.70
2023-05-02T05:41:01.778Z,25.87
2023-05-02T05:42:23.890Z,22.20
2023-05-02T05:43:46.211Z,21.20
2023-05-02T05:45:09.168Z,14.23
2023-05-02T05:46:31.319Z,15.27
2023-05-02T05:47:55.942Z,18.17
2023-05-02T05:49:18.290Z,18.20
2023-05-02T05:50:40.390Z,10.43
2023-05-02T05:52:02.970Z,20.73
2023-05-02T05:53:25.100Z,19.53
2023-05-02T05:54:47.202Z,15.20
2023-05-02T05:56:13.148Z,15.20
2023-05-02T05:57:35.305Z,21.00
2023-05-02T05:58:57.414Z,14.63
2023-05-02T06:00:19.671Z,13.67
2023-05-02T06:01:42.562Z,14.73
2023-05-02T06:03:06.607Z,17.53
2023-05-02T06:04:30.603Z,17.97
2023-05-02T06:05:52.673Z,10.67
2023-05-02T06:07:14.731Z,15.10
2023-05-02T06:08:36.829Z,17.67
2023-05-02T06:09:59.048Z,19.47
2023-05-02T06:11:21.264Z,18.47
2023-05-02T06:12:43.297Z,22.67
2023-05-02T06:14:05.473Z,15.73
2023-05-02T06:15:27.563Z,14.70
2023-05-02T06:16:49.632Z,20.60
2023-05-02T06:18:11.813Z,15.40
2023-05-02T06:19:33.879Z,19.10
2023-05-02T06:20:55.967Z,17.23
2023-05-02T06:22:18.038Z,14.40
2023-05-02T06:23:41.056Z,26.23
2023-05-02T06:25:05.134Z,21.33
2023-05-02T06:26:27.233Z,18.83
2023-05-02T06:27:49.481Z,18.27
2023-05-02T06:29:11.501Z,17.00
2023-05-02T06:30:33.635Z,25.40
2023-05-02T06:31:57.121Z,20.97
2023-05-02T06:33:19.219Z,21.27
2023-05-02T06:34:41.260Z,23.17
2023-05-02T06:36:03.768Z,21.70
2023-05-02T06:37:25.981Z,20.93
2023-05-02T06:38:48.404Z,17.33
2023-05-02T06:40:11.119Z,16.63
2023-05-02T06:41:33.172Z,16.53
2023-05-02T06:42:55.700Z,19.77
2023-05-02T06:44:17.701Z,12.90
2023-05-02T06:45:40.642Z,16.40
2023-05-02T06:47:04.722Z,23.77
2023-05-02T06:48:26.809Z,23.53
2023-05-02T06:49:48.864Z,15.53
2023-05-02T06:51:10.970Z,23.67
2023-05-02T06:52:32.999Z,14.70
2023-05-02T06:53:55.029Z,17.10
2023-05-02T06:55:17.172Z,11.30
2023-05-02T06:56:39.233Z,17.93
2023-05-02T06:58:01.291Z,8.27
2023-05-02T06:59:23.544Z,8.83
2023-05-02T07:00:45.759Z,21.37
2023-05-02T07:02:07.956Z,11.43
2023-05-02T07:03:30.133Z,20.07
2023-05-02T07:04:52.262Z,11.83
2023-05-02T07:06:14.573Z,12.50
2023-05-02T07:07:36.719Z,12.10
2023-05-02T07:08:58.799Z,10.43
2023-05-02T07:10:20.990Z,16.67
2023-05-02T07:11:43.071Z,10.40
2023-05-02T07:13:05.117Z,8.37
2023-05-02T07:14:27.229Z,11.40
2023-05-02T07:15:49.254Z,14.47
2023-05-02T07:17:11.345Z,12.13
2023-05-02T07:18:33.481Z,8.70
2023-05-02T07:19:56.413Z,13.20
2023-05-02T07:21:19.206Z,12.97
2023-05-02T07:22:41.392Z,8.57
2023-05-02T07:24:03.603Z,14.70
2023-05-02T07:25:25.817Z,12.80
2023-05-02T07:26:47.839Z,15.03
2023-05-02T07:28:09.930Z,12.43
2023-05-02T07:29:31.961Z,14.23
2023-05-02T07:30:54.082Z,7.30
2023-05-02T07:32:16.200Z,10.80
2023-05-02T07:33:38.338Z,11.30
2023-05-02T07:35:00.421Z,13.13
2023-05-02T07:36:22.633Z,15.70
2023-05-02T07:37:44.783Z,10.37
2023-05-02T07:39:07.003Z,12.33
2023-05-02T07:40:29.028Z,14.30
2023-05-02T07:41:54.714Z,17.33
2023-05-02T07:43:19.134Z,13.90
2023-05-02T07:44:41.456Z,10.60
2023-05-02T07:46:06.664Z,11.60
2023-05-02T07:47:29.324Z,12.97
2023-05-02T07:48:53.836Z,10.97
2023-05-02T07:50:15.921Z,15.03
2023-05-02T07:51:39.851Z,10.00
2023-05-02T07:53:01.984Z,10.07
2023-05-02T07:54:26.262Z,17.33
2023-05-02T07:55:48.276Z,9.87
2023-05-02T07:57:10.333Z,10.70
2023-05-02T07:58:32.553Z,11.87
2023-05-02T07:59:57.168Z,15.73
2023-05-02T08:01:20.040Z,15.00
2023-05-02T08:02:42.798Z,15.33
2023-05-02T08:04:05.588Z,12.17
2023-05-02T08:05:27.985Z,13.90
2023-05-02T08:06:50.396Z,11.50
2023-05-02T08:08:12.575Z,14.90
2023-05-02T08:09:37.345Z,15.53
2023-05-02T08:10:59.391Z,13.03
2023-05-02T08:12:21.624Z,12.93
2023-05-02T08:13:43.706Z,16.80
2023-05-02T08:15:08.349Z,12.23
2023-05-02T08:16:30.690Z,15.17
2023-05-02T08:17:52.834Z,6.40
2023-05-02T08:19:15.718Z,13.87
2023-05-02T08:20:38.176Z,10.77
2023-05-02T08:22:00.285Z,15.27
2023-05-02T08:23:22.322Z,12.93
2023-05-02T08:24:44.437Z,11.00
2023-05-02T08:26:06.608Z,14.77
2023-05-02T08:27:28.687Z,21.57
2023-05-02T08:28:54.941Z,13.07
2023-05-02T08:30:17.081Z,15.03
2023-05-02T08:31:41.042Z,14.83
2023-05-02T08:33:03.323Z,21.13
2023-05-02T08:34:25.637Z,13.60
2023-05-02T08:35:48.166Z,15.47
2023-05-02T08:37:12.048Z,15.17
2023-05-02T08:38:34.118Z,18.30
2023-05-02T08:39:56.376Z,12.73
2023-05-02T08:41:19.322Z,14.67
2023-05-02T08:42:43.923Z,15.30
2023-05-02T08:44:07.875Z,16.90
2023-05-02T08:45:37.574Z,12.50
2023-05-02T08:47:00.446Z,10.13
2023-05-02T08:48:23.174Z,17.30
2023-05-02T08:49:46.635Z,11.40
2023-05-02T08:51:13.409Z,8.73
2023-05-02T08:52:36.535Z,12.73
2023-05-02T08:53:59.850Z,17.57
2023-05-02T08:55:27.686Z,9.60
2023-05-02T08:56:49.918Z,15.47
2023-05-02T08:58:13.960Z,12.20
2023-05-02T08:59:37.578Z,19.40
2023-05-02T09:01:08.705Z,9.23
2023-05-02T09:03:06.359Z,10.50
2023-05-02T09:04:33.022Z,13.50
2023-05-02T09:06:12.979Z,8.00
2023-05-02T09:07:49.016Z,10.73
2023-05-02T09:09:11.185Z,11.73
2023-05-02T09:10:39.102Z,9.47
2023-05-02T09:12:01.855Z,8.97
2023-05-02T09:13:42.295Z,12.67
2023-05-02T09:15:19.187Z,10.23
2023-05-02T09:16:43.526Z,8.80
2023-05-02T09:18:06.022Z,13.67
2023-05-02T09:19:28.366Z,10.27
2023-05-02T09:20:51.138Z,6.60
2023-05-02T09:22:23.348Z,10.97
2023-05-02T09:23:52.861Z,11.17
2023-05-02T09:25:15.823Z,7.60
2023-05-02T09:26:37.990Z,9.80
2023-05-02T09:28:01.858Z,9.23
2023-05-02T09:29:24.024Z,10.50
2023-05-02T09:30:46.959Z,15.03
2023-05-02T09:32:09.520Z,15.23
2023-05-02T09:33:31.698Z,14.50
2023-05-02T09:35:06.946Z,8.67
2023-05-02T09:36:40.639Z,5.37
2023-05-02T09:38:03.636Z,10.50
2023-05-02T09:39:31.297Z,7.83
2023-05-02T09:40:56.557Z,10.33
2023-05-02T09:42:31.516Z,9.93
2023-05-02T09:43:59.486Z,12.23
2023-05-02T09:45:25.292Z,9.77
2023-05-02T09:46:52.946Z,14.47
2023-05-02T09:48:15.500Z,5.93
2023-05-02T09:49:42.577Z,13.07
2023-05-02T09:51:16.565Z,7.60
2023-05-02T09:52:38.655Z,8.90
2023-05-02T09:54:00.884Z,13.80
2023-05-02T09:55:23.108Z,7.67
2023-05-02T09:56:57.828Z,7.17
2023-05-02T09:58:23.639Z,9.60
2023-05-02T09:59:59.009Z,10.27
2023-05-02T10:01:21.614Z,9.60
2023-05-02T10:02:43.920Z,9.93
2023-05-02T10:04:06.408Z,7.97
2023-05-02T10:05:29.946Z,9.60
2023-05-02T10:06:53.660Z,11.17
2023-05-02T10:08:18.592Z,9.57
2023-05-02T10:09:44.762Z,12.23
2023-05-02T10:11:09.173Z,8.70
2023-05-02T10:12:33.473Z,11.10
2023-05-02T10:13:55.689Z,6.93
2023-05-02T10:15:22.157Z,11.20
2023-05-02T10:17:12.457Z,12.17
2023-05-02T10:18:56.692Z,11.40
2023-05-02T10:20:27.013Z,7.33
2023-05-02T10:21:50.532Z,10.53
2023-05-02T10:23:12.908Z,9.30
2023-05-02T10:24:35.067Z,11.53
2023-05-02T10:26:00.324Z,10.00
2023-05-02T10:27:22.617Z,5.37
2023-05-02T10:28:45.810Z,9.17
2023-05-02T10:30:09.435Z,10.73
2023-05-02T10:31:35.113Z,6.70
2023-05-02T10:33:00.146Z,6.57
2023-05-02T10:34:22.885Z,9.73
2023-05-02T10:35:47.257Z,7.47
2023-05-02T10:37:09.298Z,9.90
2023-05-02T10:38:32.259Z,12.13
2023-05-02T10:39:54.570Z,8.57
2023-05-02T10:41:20.551Z,4.30
2023-05-02T10:42:46.197Z,6.73
2023-05-02T10:44:08.891Z,12.60
2023-05-02T10:45:37.826Z,6.70
2023-05-02T10:47:00.337Z,7.47
2023-05-02T10:48:27.715Z,4.93
2023-05-02T10:49:56.661Z,8.03
2023-05-02T10:51:31.903Z,4.97
2023-05-02T10:52:54.068Z,8.40
2023-05-02T10:54:23.762Z,9.10
2023-05-02T10:55:46.173Z,8.53
2023-05-02T10:57:08.602Z,7.60
2023-05-02T10:58:30.626Z,5.50
2023-05-02T10:59:52.621Z,9.67
2023-05-02T11:01:29.727Z,12.17
2023-05-02T11:02:52.191Z,7.93
2023-05-02T11:04:14.875Z,9.53
2023-05-02T11:06:08.733Z,6.07
2023-05-02T11:07:32.599Z,6.40
2023-05-02T11:09:14.563Z,6.03
2023-05-02T11:10:36.615Z,7.53
2023-05-02T11:11:59.116Z,4.77
2023-05-02T11:13:49.523Z,9.60
2023-05-02T11:15:12.711Z,9.57
2023-05-02T11:17:08.302Z,8.30
2023-05-02T11:19:00.752Z,9.13
2023-05-02T11:20:23.477Z,5.83
2023-05-02T11:21:45.541Z,7.17
2023-05-02T11:23:22.091Z,6.20
2023-05-02T11:24:47.548Z,6.63
2023-05-02T11:26:26.006Z,5.03
2023-05-02T11:27:49.268Z,8.37
2023-05-02T11:29:11.436Z,9.10
2023-05-02T11:30:54.523Z,5.00
2023-05-02T11:32:17.526Z,7.27
2023-05-02T11:33:39.753Z,4.97
2023-05-02T11:35:01.971Z,12.60
2023-05-02T11:36:30.786Z,8.67
2023-05-02T11:38:19.142Z,7.80
2023-05-02T11:39:41.506Z,5.40
2023-05-02T11:41:04.416Z,8.30
2023-05-02T11:42:31.108Z,4.27
2023-05-02T11:44:05.595Z,6.17
2023-05-02T11:45:38.000Z,6.00
2023-05-02T11:47:02.298Z,7.50
2023-05-02T11:48:27.383Z,4.53
2023-05-02T11:49:49.819Z,7.13
2023-05-02T11:51:12.119Z,6.13
2023-05-02T11:52:41.531Z,12.53
2023-05-02T11:54:04.119Z,4.70
2023-05-02T11:55:27.173Z,5.70
2023-05-02T11:56:49.467Z,6.80
2023-05-02T11:58:14.943Z,6.03
2023-05-02T11:59:58.101Z,8.43
2023-05-02T12:01:20.327Z,3.27
2023-05-02T12:02:44.926Z,7.57
2023-05-02T12:04:08.503Z,7.77
2023-05-02T12:05:31.608Z,8.20
2023-05-02T12:06:58.117Z,6.40
2023-05-02T12:08:31.392Z,6.13
2023-05-02T12:09:54.456Z,5.60
2023-05-02T12:11:17.206Z,5.93
2023-05-02T12:12:40.953Z,6.33
2023-05-02T12:14:04.575Z,5.03
2023-05-02T12:15:27.063Z,4.13
2023-05-02T12:16:49.387Z,5.53
2023-05-02T12:18:12.328Z,7.80
2023-05-02T12:19:43.655Z,5.10
2023-05-02T12:21:06.818Z,8.60
2023-05-02T12:22:29.388Z,6.87
2023-05-02T12:23:51.762Z,4.30
2023-05-02T12:25:14.168Z,3.80
2023-05-02T12:26:38.968Z,7.60
2023-05-02T12:28:02.479Z,6.80
2023-05-02T12:29:41.624Z,8.40
2023-05-02T12:31:11.127Z,4.93
2023-05-02T12:32:36.368Z,7.50
2023-05-02T12:34:00.501Z,4.93
2023-05-02T12:35:23.150Z,3.30
2023-05-02T12:36:45.606Z,2.27
2023-05-02T12:38:23.550Z,5.90
2023-05-02T12:39:45.769Z,2.40
2023-05-02T12:41:08.248Z,4.93
2023-05-02T12:42:33.235Z,5.33
2023-05-02T12:43:55.514Z,3.07
2023-05-02T12:45:18.317Z,6.73
2023-05-02T12:46:59.596Z,3.10
2023-05-02T12:48:26.423Z,2.37
2023-05-02T12:50:00.599Z,6.03
2023-05-02T12:51:24.208Z,10.57
2023-05-02T12:52:51.518Z,4.63
2023-05-02T12:54:21.354Z,7.43
2023-05-02T12:55:43.753Z,6.50
2023-05-02T12:57:05.994Z,5.13
2023-05-02T12:58:28.618Z,4.40
2023-05-02T12:59:53.283Z,9.97
2023-05-02T13:01:15.999Z,4.13
2023-05-02T13:02:38.354Z,5.83
2023-05-02T13:04:00.687Z,7.23
2023-05-02T13:05:23.158Z,5.90
2023-05-02T13:06:46.966Z,6.70
2023-05-02T13:08:09.398Z,8.33
2023-05-02T13:09:32.027Z,5.03
2023-05-02T13:10:54.430Z,4.60
2023-05-02T13:12:16.911Z,4.90
2023-05-02T13:13:39.456Z,3.53
2023-05-02T13:15:01.753Z,6.47
2023-05-02T13:16:24.046Z,6.40
2023-05-02T13:17:46.666Z,4.43
2023-05-02T13:19:08.906Z,3.03
2023-05-02T13:20:31.294Z,6.20
2023-05-02T13:21:53.418Z,4.70
2023-05-02T13:23:16.847Z,6.73
2023-05-02T13:24:39.043Z,9.20
2023-05-02T13:26:01.232Z,4.00
2023-05-02T13:27:24.151Z,7.93
2023-05-02T13:28:46.366Z,4.73
2023-05-02T13:30:10.186Z,5.03
2023-05-02T13:31:32.745Z,2.77
2023-05-02T13:32:58.441Z,5.37
2023-05-02T13:34:21.833Z,4.10
2023-05-02T13:35:43.855Z,6.87
2023-05-02T13:37:06.047Z,4.00
2023-05-02T13:38:28.185Z,4.20
2023-05-02T13:39:50.789Z,3.20
2023-05-02T13:41:12.932Z,3.23
2023-05-02T13:42:35.261Z,13.20
2023-05-02T13:43:57.306Z,4.80
2023-05-02T13:45:19.556Z,4.57
2023-05-02T13:46:41.630Z,7.30
2023-05-02T13:48:04.023Z,7.53
2023-05-02T13:49:26.339Z,8.93
2023-05-02T13:50:48.404Z,7.30
2023-05-02T13:52:10.749Z,7.90
2023-05-02T13:53:32.782Z,3.47
2023-05-02T13:54:55.027Z,4.47
2023-05-02T13:56:17.254Z,4.20
2023-05-02T13:57:39.451Z,2.63
2023-05-02T13:59:01.698Z,7.80
2023-05-02T14:00:23.774Z,4.70
2023-05-02T14:01:45.984Z,10.17
2023-05-02T14:03:11.027Z,5.43
2023-05-02T14:04:33.324Z,4.00
2023-05-02T14:05:55.781Z,8.07
2023-05-02T14:07:17.878Z,7.47
2023-05-02T14:08:40.003Z,5.30
2023-05-02T14:10:02.260Z,6.23
2023-05-02T14:11:24.745Z,7.13
2023-05-02T14:12:46.976Z,4.10
2023-05-02T14:14:12.293Z,8.03
2023-05-02T14:15:34.358Z,5.07
2023-05-02T14:16:56.438Z,5.83
2023-05-02T14:18:18.571Z,4.40
2023-05-02T14:19:40.703Z,9.90
2023-05-02T14:21:04.143Z,2.60
2023-05-02T14:22:26.340Z,5.43
2023-05-02T14:23:48.382Z,6.00
2023-05-02T14:25:10.602Z,10.10
2023-05-02T14:26:33.166Z,12.73
2023-05-02T14:27:55.279Z,7.70
2023-05-02T14:29:18.060Z,3.90
2023-05-02T14:30:40.081Z,3.60
2023-05-02T14:32:02.204Z,4.23
2023-05-02T14:33:24.386Z,3.47
2023-05-02T14:34:46.455Z,5.30
2023-05-02T14:36:08.562Z,5.10
2023-05-02T14:37:31.060Z,4.70
2023-05-02T14:38:53.123Z,5.23
2023-05-02T14:40:15.915Z,6.23
2023-05-02T14:41:38.064Z,4.23
2023-05-02T14:43:00.368Z,8.00
2023-05-02T14:44:22.730Z,6.80
2023-05-02T14:45:44.727Z,10.97
2023-05-02T14:47:06.918Z,6.13
2023-05-02T14:48:29.150Z,9.03
2023-05-02T14:49:51.278Z,3.80
2023-05-02T14:51:13.360Z,2.90
2023-05-02T14:52:35.423Z,7.23
2023-05-02T14:53:57.758Z,3.67
2023-05-02T14:55:19.957Z,5.40
2023-05-02T14:56:42.525Z,5.67
2023-05-02T14:58:07.032Z,8.83
2023-05-02T14:59:29.754Z,4.17
2023-05-02T15:00:52.418Z,10.77
2023-05-02T15:02:14.464Z,3.73
2023-05-02T15:03:49.062Z,7.13
2023-05-02T15:05:18.733Z,5.67
2023-05-02T15:06:40.985Z,8.73
2023-05-02T15:08:03.234Z,4.67
2023-05-02T15:09:26.540Z,6.67
2023-05-02T15:10:48.783Z,4.03
2023-05-02T15:12:10.934Z,8.63
2023-05-02T15:13:32.963Z,5.63
2023-05-02T15:14:55.098Z,5.25
2023-05-02T15:16:17.371Z,4.60
2023-05-02T15:17:39.744Z,5.60
2023-05-02T15:19:01.888Z,4.60
2023-05-02T15:20:24.080Z,3.05
2023-05-02T15:21:46.201Z,4.83
2023-05-02T15:23:08.394Z,4.90
2023-05-02T15:24:30.629Z,3.93
2023-05-02T15:25:52.871Z,5.40
2023-05-02T15:27:15.212Z,5.90
2023-05-02T15:28:37.344Z,6.00
2023-05-02T15:29:59.879Z,7.43
2023-05-02T15:31:22.533Z,6.40
2023-05-02T15:32:47.577Z,10.10
2023-05-02T15:34:09.841Z,6.63
2023-05-02T15:35:31.987Z,5.87
2023-05-02T15:36:56.054Z,6.90
2023-05-02T15:38:18.194Z,5.00
2023-05-02T15:39:40.271Z,5.43
2023-05-02T15:41:02.412Z,5.70
2023-05-02T15:42:24.454Z,5.07
2023-05-02T15:43:46.532Z,12.27
2023-05-02T15:45:13.387Z,3.07
2023-05-02T15:46:35.522Z,7.17
2023-05-02T15:47:57.607Z,2.90
2023-05-02T15:49:19.896Z,9.77
2023-05-02T15:50:42.866Z,10.17
2023-05-02T15:52:05.457Z,4.23
2023-05-02T15:53:28.095Z,7.43
2023-05-02T15:54:51.732Z,4.40
2023-05-02T15:56:14.128Z,3.07
2023-05-02T15:57:36.238Z,6.23
2023-05-02T15:58:58.598Z,10.50
2023-05-02T16:00:21.301Z,6.67
2023-05-02T16:01:43.381Z,9.50
2023-05-02T16:03:06.220Z,5.90
2023-05-02T16:04:29.130Z,9.00
2023-05-02T16:05:53.549Z,5.03
2023-05-02T16:07:15.825Z,7.80
2023-05-02T16:08:38.073Z,7.37
2023-05-02T16:10:00.455Z,3.93
2023-05-02T16:11:22.976Z,6.47
2023-05-02T16:12:45.153Z,5.27
2023-05-02T16:14:07.304Z,6.43
2023-05-02T16:15:30.355Z,4.70
2023-05-02T16:16:52.519Z,6.57
2023-05-02T16:18:15.136Z,6.17
2023-05-02T16:19:37.313Z,11.77
2023-05-02T16:20:59.704Z,5.13
2023-05-02T16:22:21.856Z,3.53
2023-05-02T16:23:44.053Z,7.30
2023-05-02T16:25:07.153Z,5.97
2023-05-02T16:26:30.246Z,6.17
2023-05-02T16:27:52.697Z,6.43
2023-05-02T16:29:15.008Z,13.07
2023-05-02T16:30:37.886Z,6.67
2023-05-02T16:32:00.503Z,4.67
2023-05-02T16:33:25.608Z,8.43
2023-05-02T16:34:47.709Z,7.33
2023-05-02T16:36:10.202Z,8.50
2023-05-02T16:37:34.105Z,5.17
2023-05-02T16:38:56.420Z,2.33
2023-05-02T16:40:18.609Z,5.53
2023-05-02T16:41:40.920Z,3.50
2023-05-02T16:43:03.100Z,8.57
2023-05-02T16:44:25.335Z,12.43
2023-05-02T16:45:47.447Z,5.53
2023-05-02T16:47:09.792Z,6.67
2023-05-02T16:48:32.805Z,6.37
2023-05-02T16:49:58.391Z,4.47
2023-05-02T16:51:20.864Z,3.60
2023-05-02T16:52:44.404Z,4.97
2023-05-02T16:54:07.216Z,5.60
2023-05-02T16:55:29.402Z,4.13
2023-05-02T16:56:51.932Z,5.30
2023-05-02T16:58:14.217Z,5.22
2023-05-02T16:59:37.095Z,7.03
2023-05-02T17:01:00.993Z,5.40
2023-05-02T17:02:23.613Z,3.50
2023-05-02T17:03:46.667Z,7.00
2023-05-02T17:05:10.664Z,9.00
2023-05-02T17:06:33.041Z,5.53
2023-05-02T17:07:55.350Z,5.83
2023-05-02T17:09:18.534Z,7.20
2023-05-02T17:10:40.646Z,9.80
2023-05-02T17:12:04.358Z,6.80
2023-05-02T17:13:26.681Z,4.50
2023-05-02T17:14:49.190Z,5.03
2023-05-02T17:16:11.581Z,10.10
2023-05-02T17:17:33.980Z,3.63
2023-05-02T17:18:56.278Z,3.13
2023-05-02T17:20:20.956Z,5.63
2023-05-02T17:21:43.206Z,7.90
2023-05-02T17:23:05.529Z,4.10
2023-05-02T17:24:29.914Z,9.30
2023-05-02T17:25:52.348Z,3.50
2023-05-02T17:27:34.733Z,4.27
2023-05-02T17:29:00.012Z,4.40
2023-05-02T17:30:22.195Z,4.20
2023-05-02T17:31:44.603Z,9.03
2023-05-02T17:33:06.932Z,7.73
2023-05-02T17:34:33.597Z,7.27
2023-05-02T17:35:56.216Z,3.83
2023-05-02T17:37:18.417Z,6.37
2023-05-02T17:38:41.872Z,4.63
2023-05-02T17:40:07.895Z,5.23
2023-05-02T17:41:30.980Z,6.87
2023-05-02T17:42:53.188Z,7.53
2023-05-02T17:44:18.492Z,5.43
2023-05-02T17:45:41.565Z,6.30
2023-05-02T17:47:04.382Z,10.57
2023-05-02T17:48:26.476Z,5.47
2023-05-02T17:49:51.088Z,3.87
2023-05-02T17:51:13.317Z,9.40
2023-05-02T17:52:35.731Z,4.00
2023-05-02T17:53:57.813Z,7.03
2023-05-02T17:55:20.026Z,8.63
2023-05-02T17:56:42.682Z,5.97
2023-05-02T17:58:04.926Z,5.13
2023-05-02T17:59:27.311Z,3.73
2023-05-02T18:00:49.395Z,2.33
2023-05-02T18:02:11.767Z,3.87
2023-05-02T18:03:33.978Z,3.50
2023-05-02T18:04:56.088Z,6.47
2023-05-02T18:06:18.794Z,3.23
2023-05-02T18:07:40.871Z,7.03
2023-05-02T18:09:03.021Z,4.23
2023-05-02T18:10:25.101Z,4.23
2023-05-02T18:11:47.299Z,8.93
2023-05-02T18:13:09.863Z,5.40
2023-05-02T18:14:32.313Z,3.87
2023-05-02T18:16:04.786Z,4.50
2023-05-02T18:17:28.072Z,7.07
2023-05-02T18:18:50.275Z,7.40
2023-05-02T18:20:12.533Z,9.20
2023-05-02T18:21:37.645Z,6.77
2023-05-02T18:23:01.266Z,16.33
2023-05-02T18:24:23.559Z,4.87
2023-05-02T18:25:46.172Z,5.93
2023-05-02T18:27:08.276Z,3.30
2023-05-02T18:28:30.601Z,2.23